sensor_id;sensor_type;location;lat;lon;timestamp;temperature;humidity
10390;DHT22;5241;47.830;12.972;2024-01-11T00:00:34;-4.10;99.90
10390;DHT22;5241;47.830;12.972;2024-01-11T00:03:00;-4.10;99.90
10390;DHT22;5241;47.830;12.972;2024-01-11T00:05:26;-4.10;99.90
10390;DHT22;5241;47.830;12.972;2024-01-11T00:07:52;-4.10;99.90
10390;DHT22;5241;47.830;12.972;2024-01-11T00:10:18;-4.10;99.90
10390;DHT22;5241;47.830;12.972;2024-01-11T00:12:43;-4.10;99.90
10390;DHT22;5241;47.830;12.972;2024-01-11T00:15:09;-4.10;99.90
10390;DHT22;5241;47.830;12.972;2024-01-11T00:17:35;-4.10;99.90
10390;DHT22;5241;47.830;12.972;2024-01-11T00:20:01;-4.20;99.90
10390;DHT22;5241;47.830;12.972;2024-01-11T00:22:26;-4.20;99.90
10390;DHT22;5241;47.830;12.972;2024-01-11T00:24:52;-4.20;99.90
10390;DHT22;5241;47.830;12.972;2024-01-11T00:27:18;-4.20;99.90
10390;DHT22;5241;47.830;12.972;2024-01-11T00:29:43;-4.20;99.90
10390;DHT22;5241;47.830;12.972;2024-01-11T00:32:09;-4.20;99.90
10390;DHT22;5241;47.830;12.972;2024-01-11T00:34:35;-4.10;99.90
10390;DHT22;5241;47.830;12.972;2024-01-11T00:37:01;-4.10;99.90
10390;DHT22;5241;47.830;12.972;2024-01-11T00:39:27;-4.00;99.90
10390;DHT22;5241;47.830;12.972;2024-01-11T00:41:53;-4.00;99.90
10390;DHT22;5241;47.830;12.972;2024-01-11T00:44:18;-4.00;99.90
10390;DHT22;5241;47.830;12.972;2024-01-11T00:46:44;-4.20;99.90
10390;DHT22;5241;47.830;12.972;2024-01-11T00:49:09;-4.20;99.90
10390;DHT22;5241;47.830;12.972;2024-01-11T00:51:35;-4.20;99.90
10390;DHT22;5241;47.830;12.972;2024-01-11T00:54:01;-4.20;99.90
10390;DHT22;5241;47.830;12.972;2024-01-11T00:56:26;-4.30;99.90
10390;DHT22;5241;47.830;12.972;2024-01-11T00:58:52;-4.30;99.90
10390;DHT22;5241;47.830;12.972;2024-01-11T01:01:18;-4.40;99.90
10390;DHT22;5241;47.830;12.972;2024-01-11T01:03:44;-4.40;99.90
10390;DHT22;5241;47.830;12.972;2024-01-11T01:06:09;-4.40;99.90
10390;DHT22;5241;47.830;12.972;2024-01-11T01:08:35;-4.40;99.90
10390;DHT22;5241;47.830;12.972;2024-01-11T01:11:00;-4.40;99.90
10390;DHT22;5241;47.830;12.972;2024-01-11T01:13:26;-4.40;99.90
10390;DHT22;5241;47.830;12.972;2024-01-11T01:15:51;-4.40;99.90
10390;DHT22;5241;47.830;12.972;2024-01-11T01:18:17;-4.50;99.90
10390;DHT22;5241;47.830;12.972;2024-01-11T01:20:43;-4.40;99.90
10390;DHT22;5241;47.830;12.972;2024-01-11T01:23:08;-4.50;99.90
10390;DHT22;5241;47.830;12.972;2024-01-11T01:25:34;-4.50;99.90
10390;DHT22;5241;47.830;12.972;2024-01-11T01:27:59;-4.50;99.90
10390;DHT22;5241;47.830;12.972;2024-01-11T01:30:26;-4.50;99.90
10390;DHT22;5241;47.830;12.972;2024-01-11T01:32:52;-4.60;99.90
10390;DHT22;5241;47.830;12.972;2024-01-11T01:35:18;-4.60;99.90
10390;DHT22;5241;47.830;12.972;2024-01-11T01:37:44;-4.60;99.90
10390;DHT22;5241;47.830;12.972;2024-01-11T01:40:11;-4.50;99.90
10390;DHT22;5241;47.830;12.972;2024-01-11T01:42:44;-4.50;99.90
10390;DHT22;5241;47.830;12.972;2024-01-11T01:45:10;-4.50;99.90
10390;DHT22;5241;47.830;12.972;2024-01-11T01:47:37;-4.60;99.90
10390;DHT22;5241;47.830;12.972;2024-01-11T01:50:04;-4.60;99.90
10390;DHT22;5241;47.830;12.972;2024-01-11T01:52:30;-4.60;99.90
10390;DHT22;5241;47.830;12.972;2024-01-11T01:54:58;-4.60;99.90
10390;DHT22;5241;47.830;12.972;2024-01-11T01:57:24;-4.60;99.90
10390;DHT22;5241;47.830;12.972;2024-01-11T01:59:51;-4.50;99.90
10390;DHT22;5241;47.830;12.972;2024-01-11T02:02:20;-4.40;99.90
10390;DHT22;5241;47.830;12.972;2024-01-11T02:04:46;-4.30;99.90
10390;DHT22;5241;47.830;12.972;2024-01-11T02:07:13;-4.30;99.90
10390;DHT22;5241;47.830;12.972;2024-01-11T02:09:40;-4.20;99.90
10390;DHT22;5241;47.830;12.972;2024-01-11T02:12:05;-4.20;99.90
10390;DHT22;5241;47.830;12.972;2024-01-11T02:14:32;-4.30;99.90
10390;DHT22;5241;47.830;12.972;2024-01-11T02:16:57;-4.30;99.90
10390;DHT22;5241;47.830;12.972;2024-01-11T02:19:23;-4.20;99.90
10390;DHT22;5241;47.830;12.972;2024-01-11T02:21:52;-4.30;99.90
10390;DHT22;5241;47.830;12.972;2024-01-11T02:24:20;-4.40;99.90
10390;DHT22;5241;47.830;12.972;2024-01-11T02:26:59;-4.40;99.90
10390;DHT22;5241;47.830;12.972;2024-01-11T02:29:26;-4.30;99.90
10390;DHT22;5241;47.830;12.972;2024-01-11T02:31:52;-4.20;99.90
10390;DHT22;5241;47.830;12.972;2024-01-11T02:34:18;-4.20;99.90
10390;DHT22;5241;47.830;12.972;2024-01-11T02:36:44;-4.20;99.90
10390;DHT22;5241;47.830;12.972;2024-01-11T02:39:09;-4.30;99.90
10390;DHT22;5241;47.830;12.972;2024-01-11T02:41:37;-4.50;99.90
10390;DHT22;5241;47.830;12.972;2024-01-11T02:44:02;-4.50;99.90
10390;DHT22;5241;47.830;12.972;2024-01-11T02:46:28;-4.60;99.90
10390;DHT22;5241;47.830;12.972;2024-01-11T02:48:53;-4.50;99.90
10390;DHT22;5241;47.830;12.972;2024-01-11T02:51:19;-4.50;99.90
10390;DHT22;5241;47.830;12.972;2024-01-11T02:53:44;-4.40;99.90
10390;DHT22;5241;47.830;12.972;2024-01-11T02:56:10;-4.40;99.90
10390;DHT22;5241;47.830;12.972;2024-01-11T02:58:35;-4.30;99.90
10390;DHT22;5241;47.830;12.972;2024-01-11T03:01:01;-4.40;99.90
10390;DHT22;5241;47.830;12.972;2024-01-11T03:03:27;-4.30;99.90
10390;DHT22;5241;47.830;12.972;2024-01-11T03:05:52;-4.10;99.90
10390;DHT22;5241;47.830;12.972;2024-01-11T03:08:18;-4.10;99.90
10390;DHT22;5241;47.830;12.972;2024-01-11T03:10:44;-4.20;99.90
10390;DHT22;5241;47.830;12.972;2024-01-11T03:13:09;-4.10;99.90
10390;DHT22;5241;47.830;12.972;2024-01-11T03:15:34;-4.10;99.90
10390;DHT22;5241;47.830;12.972;2024-01-11T03:18:00;-4.10;99.90
10390;DHT22;5241;47.830;12.972;2024-01-11T03:20:25;-4.10;99.90
10390;DHT22;5241;47.830;12.972;2024-01-11T03:22:51;-4.00;99.90
10390;DHT22;5241;47.830;12.972;2024-01-11T03:25:18;-4.10;99.90
10390;DHT22;5241;47.830;12.972;2024-01-11T03:27:43;-4.10;99.90
10390;DHT22;5241;47.830;12.972;2024-01-11T03:30:09;-4.10;99.90
10390;DHT22;5241;47.830;12.972;2024-01-11T03:32:35;-4.10;99.90
10390;DHT22;5241;47.830;12.972;2024-01-11T03:35:00;-4.20;99.90
10390;DHT22;5241;47.830;12.972;2024-01-11T03:37:26;-4.20;99.90
10390;DHT22;5241;47.830;12.972;2024-01-11T03:39:51;-4.30;99.90
10390;DHT22;5241;47.830;12.972;2024-01-11T03:42:17;-4.30;99.90
10390;DHT22;5241;47.830;12.972;2024-01-11T03:44:42;-4.40;99.90
10390;DHT22;5241;47.830;12.972;2024-01-11T03:47:08;-4.50;99.90
10390;DHT22;5241;47.830;12.972;2024-01-11T03:49:33;-4.50;99.90
10390;DHT22;5241;47.830;12.972;2024-01-11T03:51:59;-4.50;99.90
10390;DHT22;5241;47.830;12.972;2024-01-11T03:54:25;-4.60;99.90
10390;DHT22;5241;47.830;12.972;2024-01-11T03:56:50;-4.50;99.90
10390;DHT22;5241;47.830;12.972;2024-01-11T03:59:16;-4.50;99.90
10390;DHT22;5241;47.830;12.972;2024-01-11T04:01:42;-4.40;99.90
10390;DHT22;5241;47.830;12.972;2024-01-11T04:04:08;-4.30;99.90
10390;DHT22;5241;47.830;12.972;2024-01-11T04:06:33;-4.40;99.90
10390;DHT22;5241;47.830;12.972;2024-01-11T04:08:59;-4.40;99.90
10390;DHT22;5241;47.830;12.972;2024-01-11T04:11:28;-4.40;99.90
10390;DHT22;5241;47.830;12.972;2024-01-11T04:13:54;-4.60;99.90
10390;DHT22;5241;47.830;12.972;2024-01-11T04:16:20;-4.60;99.90
10390;DHT22;5241;47.830;12.972;2024-01-11T04:18:46;-4.60;99.90
10390;DHT22;5241;47.830;12.972;2024-01-11T04:21:26;-4.70;99.90
10390;DHT22;5241;47.830;12.972;2024-01-11T04:23:54;-4.80;99.90
10390;DHT22;5241;47.830;12.972;2024-01-11T04:26:20;-4.70;99.90
10390;DHT22;5241;47.830;12.972;2024-01-11T04:28:46;-4.60;99.90
10390;DHT22;5241;47.830;12.972;2024-01-11T04:31:13;-4.60;99.90
10390;DHT22;5241;47.830;12.972;2024-01-11T04:33:42;-4.70;99.90
10390;DHT22;5241;47.830;12.972;2024-01-11T04:36:12;-4.70;99.90
10390;DHT22;5241;47.830;12.972;2024-01-11T04:38:38;-4.70;99.90
10390;DHT22;5241;47.830;12.972;2024-01-11T04:41:10;-4.70;99.90
10390;DHT22;5241;47.830;12.972;2024-01-11T04:43:40;-4.70;99.90
10390;DHT22;5241;47.830;12.972;2024-01-11T04:46:23;-4.60;99.90
10390;DHT22;5241;47.830;12.972;2024-01-11T04:48:49;-4.60;99.90
10390;DHT22;5241;47.830;12.972;2024-01-11T04:51:16;-4.70;99.90
10390;DHT22;5241;47.830;12.972;2024-01-11T04:53:43;-4.70;99.90
10390;DHT22;5241;47.830;12.972;2024-01-11T04:56:10;-4.70;99.90
10390;DHT22;5241;47.830;12.972;2024-01-11T04:58:40;-4.80;99.90
10390;DHT22;5241;47.830;12.972;2024-01-11T05:01:07;-4.80;99.90
10390;DHT22;5241;47.830;12.972;2024-01-11T05:03:33;-4.80;99.90
10390;DHT22;5241;47.830;12.972;2024-01-11T05:05:59;-4.80;99.90
10390;DHT22;5241;47.830;12.972;2024-01-11T05:08:25;-4.80;99.90
10390;DHT22;5241;47.830;12.972;2024-01-11T05:10:51;-4.90;99.90
10390;DHT22;5241;47.830;12.972;2024-01-11T05:13:17;-4.80;99.90
10390;DHT22;5241;47.830;12.972;2024-01-11T05:15:43;-4.80;99.90
10390;DHT22;5241;47.830;12.972;2024-01-11T05:18:09;-4.80;99.90
10390;DHT22;5241;47.830;12.972;2024-01-11T05:20:36;-4.80;99.90
10390;DHT22;5241;47.830;12.972;2024-01-11T05:23:01;-4.80;99.90
10390;DHT22;5241;47.830;12.972;2024-01-11T05:25:27;-4.80;99.90
10390;DHT22;5241;47.830;12.972;2024-01-11T05:27:52;-4.90;99.90
10390;DHT22;5241;47.830;12.972;2024-01-11T05:30:18;-4.80;99.90
10390;DHT22;5241;47.830;12.972;2024-01-11T05:32:43;-4.90;99.90
10390;DHT22;5241;47.830;12.972;2024-01-11T05:35:09;-4.80;99.90
10390;DHT22;5241;47.830;12.972;2024-01-11T05:37:36;-4.70;99.90
10390;DHT22;5241;47.830;12.972;2024-01-11T05:40:01;-4.70;99.90
10390;DHT22;5241;47.830;12.972;2024-01-11T05:42:27;-4.70;99.90
10390;DHT22;5241;47.830;12.972;2024-01-11T05:44:53;-4.70;99.90
10390;DHT22;5241;47.830;12.972;2024-01-11T05:47:18;-4.70;99.90
10390;DHT22;5241;47.830;12.972;2024-01-11T05:49:44;-4.60;99.90
10390;DHT22;5241;47.830;12.972;2024-01-11T05:52:10;-4.70;99.90
10390;DHT22;5241;47.830;12.972;2024-01-11T05:54:36;-4.70;99.90
10390;DHT22;5241;47.830;12.972;2024-01-11T05:57:02;-4.70;99.90
10390;DHT22;5241;47.830;12.972;2024-01-11T05:59:27;-4.70;99.90
10390;DHT22;5241;47.830;12.972;2024-01-11T06:01:53;-4.80;99.90
10390;DHT22;5241;47.830;12.972;2024-01-11T06:04:18;-4.80;99.90
10390;DHT22;5241;47.830;12.972;2024-01-11T06:06:44;-4.80;99.90
10390;DHT22;5241;47.830;12.972;2024-01-11T06:09:09;-4.80;99.90
10390;DHT22;5241;47.830;12.972;2024-01-11T06:11:35;-4.70;99.90
10390;DHT22;5241;47.830;12.972;2024-01-11T06:14:01;-4.70;99.90
10390;DHT22;5241;47.830;12.972;2024-01-11T06:16:28;-4.70;99.90
10390;DHT22;5241;47.830;12.972;2024-01-11T06:18:53;-4.50;99.90
10390;DHT22;5241;47.830;12.972;2024-01-11T06:21:19;-4.40;99.90
10390;DHT22;5241;47.830;12.972;2024-01-11T06:23:44;-4.40;99.90
10390;DHT22;5241;47.830;12.972;2024-01-11T06:26:10;-4.40;99.90
10390;DHT22;5241;47.830;12.972;2024-01-11T06:28:35;-4.30;99.90
10390;DHT22;5241;47.830;12.972;2024-01-11T06:31:01;-4.30;99.90
10390;DHT22;5241;47.830;12.972;2024-01-11T06:33:27;-4.30;99.90
10390;DHT22;5241;47.830;12.972;2024-01-11T06:35:53;-4.40;99.90
10390;DHT22;5241;47.830;12.972;2024-01-11T06:38:19;-4.30;99.90
10390;DHT22;5241;47.830;12.972;2024-01-11T06:40:44;-4.50;99.90
10390;DHT22;5241;47.830;12.972;2024-01-11T06:43:10;-4.60;99.90
10390;DHT22;5241;47.830;12.972;2024-01-11T06:45:36;-4.60;99.90
10390;DHT22;5241;47.830;12.972;2024-01-11T06:48:02;-4.40;99.90
10390;DHT22;5241;47.830;12.972;2024-01-11T06:50:28;-4.40;99.90
10390;DHT22;5241;47.830;12.972;2024-01-11T06:52:54;-4.40;99.90
10390;DHT22;5241;47.830;12.972;2024-01-11T06:55:19;-4.40;99.90
10390;DHT22;5241;47.830;12.972;2024-01-11T06:57:47;-4.40;99.90
10390;DHT22;5241;47.830;12.972;2024-01-11T07:00:13;-4.40;99.90
10390;DHT22;5241;47.830;12.972;2024-01-11T07:02:39;-4.40;99.90
10390;DHT22;5241;47.830;12.972;2024-01-11T07:05:06;-4.30;99.90
10390;DHT22;5241;47.830;12.972;2024-01-11T07:07:31;-4.30;99.90
10390;DHT22;5241;47.830;12.972;2024-01-11T07:09:58;-4.40;99.90
10390;DHT22;5241;47.830;12.972;2024-01-11T07:12:24;-4.50;99.90
10390;DHT22;5241;47.830;12.972;2024-01-11T07:14:49;-4.40;99.90
10390;DHT22;5241;47.830;12.972;2024-01-11T07:17:15;-4.40;99.90
10390;DHT22;5241;47.830;12.972;2024-01-11T07:19:40;-4.40;99.90
10390;DHT22;5241;47.830;12.972;2024-01-11T07:22:06;-4.30;99.90
10390;DHT22;5241;47.830;12.972;2024-01-11T07:24:31;-4.20;99.90
10390;DHT22;5241;47.830;12.972;2024-01-11T07:27:04;-4.30;99.90
10390;DHT22;5241;47.830;12.972;2024-01-11T07:29:30;-4.40;99.90
10390;DHT22;5241;47.830;12.972;2024-01-11T07:31:55;-4.40;99.90
10390;DHT22;5241;47.830;12.972;2024-01-11T07:34:21;-4.30;99.90
10390;DHT22;5241;47.830;12.972;2024-01-11T07:36:46;-4.20;99.90
10390;DHT22;5241;47.830;12.972;2024-01-11T07:39:12;-4.10;99.90
10390;DHT22;5241;47.830;12.972;2024-01-11T07:41:37;-4.00;99.90
10390;DHT22;5241;47.830;12.972;2024-01-11T07:44:03;-4.10;99.90
10390;DHT22;5241;47.830;12.972;2024-01-11T07:46:29;-4.00;99.90
10390;DHT22;5241;47.830;12.972;2024-01-11T07:48:54;-4.00;99.90
10390;DHT22;5241;47.830;12.972;2024-01-11T07:51:20;-4.00;99.90
10390;DHT22;5241;47.830;12.972;2024-01-11T07:53:45;-4.00;99.90
10390;DHT22;5241;47.830;12.972;2024-01-11T07:56:11;-4.00;99.90
10390;DHT22;5241;47.830;12.972;2024-01-11T07:58:37;-4.00;99.90
10390;DHT22;5241;47.830;12.972;2024-01-11T08:01:03;-4.00;99.90
10390;DHT22;5241;47.830;12.972;2024-01-11T08:03:29;-4.00;99.90
10390;DHT22;5241;47.830;12.972;2024-01-11T08:05:55;-3.90;99.90
10390;DHT22;5241;47.830;12.972;2024-01-11T08:08:21;-3.90;99.90
10390;DHT22;5241;47.830;12.972;2024-01-11T08:10:47;-3.80;99.90
10390;DHT22;5241;47.830;12.972;2024-01-11T08:13:15;-4.00;99.90
10390;DHT22;5241;47.830;12.972;2024-01-11T08:15:41;-3.80;99.90
10390;DHT22;5241;47.830;12.972;2024-01-11T08:18:07;-3.90;99.90
10390;DHT22;5241;47.830;12.972;2024-01-11T08:20:33;-3.80;99.90
10390;DHT22;5241;47.830;12.972;2024-01-11T08:22:58;-3.80;99.90
10390;DHT22;5241;47.830;12.972;2024-01-11T08:25:24;-3.80;99.90
10390;DHT22;5241;47.830;12.972;2024-01-11T08:27:49;-4.00;99.90
10390;DHT22;5241;47.830;12.972;2024-01-11T08:30:15;-3.90;99.90
10390;DHT22;5241;47.830;12.972;2024-01-11T08:32:41;-3.80;99.90
10390;DHT22;5241;47.830;12.972;2024-01-11T08:35:11;-3.60;99.90
10390;DHT22;5241;47.830;12.972;2024-01-11T08:37:37;-3.60;99.90
10390;DHT22;5241;47.830;12.972;2024-01-11T08:40:02;-3.50;99.90
10390;DHT22;5241;47.830;12.972;2024-01-11T08:42:30;-3.40;99.90
10390;DHT22;5241;47.830;12.972;2024-01-11T08:44:56;-3.40;99.90
10390;DHT22;5241;47.830;12.972;2024-01-11T08:47:21;-3.20;99.90
10390;DHT22;5241;47.830;12.972;2024-01-11T08:49:47;-3.10;99.90
10390;DHT22;5241;47.830;12.972;2024-01-11T08:52:13;-3.20;99.90
10390;DHT22;5241;47.830;12.972;2024-01-11T08:54:38;-3.30;99.90
10390;DHT22;5241;47.830;12.972;2024-01-11T08:57:04;-3.30;99.90
10390;DHT22;5241;47.830;12.972;2024-01-11T08:59:30;-3.20;99.90
10390;DHT22;5241;47.830;12.972;2024-01-11T09:01:55;-3.30;99.90
10390;DHT22;5241;47.830;12.972;2024-01-11T09:04:21;-3.40;99.90
10390;DHT22;5241;47.830;12.972;2024-01-11T09:06:46;-3.30;99.90
10390;DHT22;5241;47.830;12.972;2024-01-11T09:09:12;-3.30;99.90
10390;DHT22;5241;47.830;12.972;2024-01-11T09:11:39;-3.30;99.90
10390;DHT22;5241;47.830;12.972;2024-01-11T09:14:06;-3.10;99.90
10390;DHT22;5241;47.830;12.972;2024-01-11T09:16:32;-3.10;99.90
10390;DHT22;5241;47.830;12.972;2024-01-11T09:18:58;-3.00;99.90
10390;DHT22;5241;47.830;12.972;2024-01-11T09:21:26;-3.00;99.90
10390;DHT22;5241;47.830;12.972;2024-01-11T09:23:51;-3.10;99.90
10390;DHT22;5241;47.830;12.972;2024-01-11T09:26:17;-2.90;99.90
10390;DHT22;5241;47.830;12.972;2024-01-11T09:28:42;-2.90;99.90
10390;DHT22;5241;47.830;12.972;2024-01-11T09:31:08;-2.90;99.90
10390;DHT22;5241;47.830;12.972;2024-01-11T09:33:33;-2.90;99.90
10390;DHT22;5241;47.830;12.972;2024-01-11T09:35:59;-3.00;99.90
10390;DHT22;5241;47.830;12.972;2024-01-11T09:38:25;-3.20;99.90
10390;DHT22;5241;47.830;12.972;2024-01-11T09:41:15;-3.20;99.90
10390;DHT22;5241;47.830;12.972;2024-01-11T09:43:41;-3.30;99.90
10390;DHT22;5241;47.830;12.972;2024-01-11T09:46:09;-3.20;99.90
10390;DHT22;5241;47.830;12.972;2024-01-11T09:48:36;-3.20;99.90
10390;DHT22;5241;47.830;12.972;2024-01-11T09:51:03;-3.20;99.90
10390;DHT22;5241;47.830;12.972;2024-01-11T09:53:33;-3.20;99.90
10390;DHT22;5241;47.830;12.972;2024-01-11T09:55:59;-3.20;99.90
10390;DHT22;5241;47.830;12.972;2024-01-11T09:58:26;-3.30;99.90
10390;DHT22;5241;47.830;12.972;2024-01-11T10:00:54;-3.40;99.90
10390;DHT22;5241;47.830;12.972;2024-01-11T10:03:24;-3.40;99.90
10390;DHT22;5241;47.830;12.972;2024-01-11T10:05:50;-3.20;99.90
10390;DHT22;5241;47.830;12.972;2024-01-11T10:08:21;-3.20;99.90
10390;DHT22;5241;47.830;12.972;2024-01-11T10:10:47;-3.30;99.90
10390;DHT22;5241;47.830;12.972;2024-01-11T10:13:13;-2.90;99.90
10390;DHT22;5241;47.830;12.972;2024-01-11T10:15:39;-2.60;99.90
10390;DHT22;5241;47.830;12.972;2024-01-11T10:18:05;-2.70;99.90
10390;DHT22;5241;47.830;12.972;2024-01-11T10:20:30;-2.90;99.90
10390;DHT22;5241;47.830;12.972;2024-01-11T10:22:57;-2.90;99.90
10390;DHT22;5241;47.830;12.972;2024-01-11T10:25:23;-2.80;99.90
10390;DHT22;5241;47.830;12.972;2024-01-11T10:27:50;-2.80;99.90
10390;DHT22;5241;47.830;12.972;2024-01-11T10:30:16;-2.70;99.90
10390;DHT22;5241;47.830;12.972;2024-01-11T10:32:43;-2.60;99.90
10390;DHT22;5241;47.830;12.972;2024-01-11T10:35:09;-2.80;99.90
10390;DHT22;5241;47.830;12.972;2024-01-11T10:37:36;-2.90;99.90
10390;DHT22;5241;47.830;12.972;2024-01-11T10:40:07;-2.90;99.90
10390;DHT22;5241;47.830;12.972;2024-01-11T10:42:45;-2.70;99.90
10390;DHT22;5241;47.830;12.972;2024-01-11T10:45:18;-2.40;99.90
10390;DHT22;5241;47.830;12.972;2024-01-11T10:47:56;-2.20;99.90
10390;DHT22;5241;47.830;12.972;2024-01-11T10:50:25;-2.50;99.90
10390;DHT22;5241;47.830;12.972;2024-01-11T10:55:56;-2.50;99.90
10390;DHT22;5241;47.830;12.972;2024-01-11T10:58:23;-2.50;99.90
10390;DHT22;5241;47.830;12.972;2024-01-11T11:00:51;-2.30;99.90
10390;DHT22;5241;47.830;12.972;2024-01-11T11:03:18;-2.50;99.90
10390;DHT22;5241;47.830;12.972;2024-01-11T11:05:47;-2.60;99.90
10390;DHT22;5241;47.830;12.972;2024-01-11T11:08:14;-2.50;99.90
10390;DHT22;5241;47.830;12.972;2024-01-11T11:10:40;-2.60;99.90
10390;DHT22;5241;47.830;12.972;2024-01-11T11:13:08;-2.80;99.90
10390;DHT22;5241;47.830;12.972;2024-01-11T11:15:35;-2.80;99.90
10390;DHT22;5241;47.830;12.972;2024-01-11T11:18:02;-2.80;99.90
10390;DHT22;5241;47.830;12.972;2024-01-11T11:20:29;-2.80;99.90
10390;DHT22;5241;47.830;12.972;2024-01-11T11:23:08;-2.90;99.90
10390;DHT22;5241;47.830;12.972;2024-01-11T11:25:39;-2.80;99.90
10390;DHT22;5241;47.830;12.972;2024-01-11T11:28:05;-2.80;99.90
10390;DHT22;5241;47.830;12.972;2024-01-11T11:30:36;-2.90;99.90
10390;DHT22;5241;47.830;12.972;2024-01-11T11:33:23;-2.90;99.90
10390;DHT22;5241;47.830;12.972;2024-01-11T11:35:53;-2.90;99.90
10390;DHT22;5241;47.830;12.972;2024-01-11T11:38:29;-3.00;99.90
10390;DHT22;5241;47.830;12.972;2024-01-11T11:40:57;-2.90;99.90
10390;DHT22;5241;47.830;12.972;2024-01-11T11:43:24;-2.90;99.90
10390;DHT22;5241;47.830;12.972;2024-01-11T11:45:52;-3.00;99.90
10390;DHT22;5241;47.830;12.972;2024-01-11T11:51:10;-3.00;99.90
10390;DHT22;5241;47.830;12.972;2024-01-11T11:53:36;-3.00;99.90
10390;DHT22;5241;47.830;12.972;2024-01-11T11:56:03;-3.00;99.90
10390;DHT22;5241;47.830;12.972;2024-01-11T11:58:33;-3.00;99.90
10390;DHT22;5241;47.830;12.972;2024-01-11T12:00:59;-3.10;99.90
10390;DHT22;5241;47.830;12.972;2024-01-11T12:03:30;-3.00;99.90
10390;DHT22;5241;47.830;12.972;2024-01-11T12:05:57;-2.90;99.90
10390;DHT22;5241;47.830;12.972;2024-01-11T12:08:23;-2.80;99.90
10390;DHT22;5241;47.830;12.972;2024-01-11T12:10:49;-2.70;99.90
10390;DHT22;5241;47.830;12.972;2024-01-11T12:13:14;-2.60;99.90
10390;DHT22;5241;47.830;12.972;2024-01-11T12:15:40;-2.70;99.90
10390;DHT22;5241;47.830;12.972;2024-01-11T12:18:06;-2.90;99.90
10390;DHT22;5241;47.830;12.972;2024-01-11T12:20:33;-2.80;99.90
10390;DHT22;5241;47.830;12.972;2024-01-11T12:22:58;-2.80;99.90
10390;DHT22;5241;47.830;12.972;2024-01-11T12:25:25;-2.60;99.90
10390;DHT22;5241;47.830;12.972;2024-01-11T12:27:50;-2.50;99.90
10390;DHT22;5241;47.830;12.972;2024-01-11T12:30:22;-2.70;99.90
10390;DHT22;5241;47.830;12.972;2024-01-11T12:32:49;-2.40;99.90
10390;DHT22;5241;47.830;12.972;2024-01-11T12:35:15;-2.20;99.90
10390;DHT22;5241;47.830;12.972;2024-01-11T12:37:41;-2.30;99.90
10390;DHT22;5241;47.830;12.972;2024-01-11T12:40:07;-2.40;99.90
10390;DHT22;5241;47.830;12.972;2024-01-11T12:42:35;-2.40;99.90
10390;DHT22;5241;47.830;12.972;2024-01-11T12:45:01;-2.60;99.90
10390;DHT22;5241;47.830;12.972;2024-01-11T12:47:27;-2.60;99.90
10390;DHT22;5241;47.830;12.972;2024-01-11T12:49:53;-2.70;99.90
10390;DHT22;5241;47.830;12.972;2024-01-11T12:52:19;-2.80;99.90
10390;DHT22;5241;47.830;12.972;2024-01-11T12:54:52;-2.80;99.90
10390;DHT22;5241;47.830;12.972;2024-01-11T12:57:19;-2.80;99.90
10390;DHT22;5241;47.830;12.972;2024-01-11T12:59:48;-2.80;99.90
10390;DHT22;5241;47.830;12.972;2024-01-11T13:02:15;-2.90;99.90
10390;DHT22;5241;47.830;12.972;2024-01-11T13:04:43;-2.60;99.90
10390;DHT22;5241;47.830;12.972;2024-01-11T13:07:10;-2.40;99.90
10390;DHT22;5241;47.830;12.972;2024-01-11T13:09:37;-2.40;99.90
10390;DHT22;5241;47.830;12.972;2024-01-11T13:12:04;-2.40;99.90
10390;DHT22;5241;47.830;12.972;2024-01-11T13:14:30;-2.40;99.90
10390;DHT22;5241;47.830;12.972;2024-01-11T13:16:55;-2.30;99.90
10390;DHT22;5241;47.830;12.972;2024-01-11T13:19:21;-2.30;99.90
10390;DHT22;5241;47.830;12.972;2024-01-11T13:21:47;-2.60;99.90
10390;DHT22;5241;47.830;12.972;2024-01-11T13:24:12;-2.70;99.90
10390;DHT22;5241;47.830;12.972;2024-01-11T13:26:38;-2.80;99.90
10390;DHT22;5241;47.830;12.972;2024-01-11T13:29:04;-2.90;99.90
10390;DHT22;5241;47.830;12.972;2024-01-11T13:31:33;-2.80;99.90
10390;DHT22;5241;47.830;12.972;2024-01-11T13:33:59;-2.70;99.90
10390;DHT22;5241;47.830;12.972;2024-01-11T13:36:25;-2.70;99.90
10390;DHT22;5241;47.830;12.972;2024-01-11T13:38:51;-2.90;99.90
10390;DHT22;5241;47.830;12.972;2024-01-11T13:41:16;-2.80;99.90
10390;DHT22;5241;47.830;12.972;2024-01-11T13:43:43;-2.70;99.90
10390;DHT22;5241;47.830;12.972;2024-01-11T13:46:08;-2.70;99.90
10390;DHT22;5241;47.830;12.972;2024-01-11T13:48:34;-2.90;99.90
10390;DHT22;5241;47.830;12.972;2024-01-11T13:51:01;-3.00;99.90
10390;DHT22;5241;47.830;12.972;2024-01-11T13:53:28;-3.00;99.90
10390;DHT22;5241;47.830;12.972;2024-01-11T13:55:54;-3.10;99.90
10390;DHT22;5241;47.830;12.972;2024-01-11T13:58:21;-3.20;99.90
10390;DHT22;5241;47.830;12.972;2024-01-11T14:00:46;-3.10;99.90
10390;DHT22;5241;47.830;12.972;2024-01-11T14:03:12;-3.10;99.90
10390;DHT22;5241;47.830;12.972;2024-01-11T14:05:38;-3.20;99.90
10390;DHT22;5241;47.830;12.972;2024-01-11T14:08:04;-3.30;99.90
10390;DHT22;5241;47.830;12.972;2024-01-11T14:10:33;-3.40;99.90
10390;DHT22;5241;47.830;12.972;2024-01-11T14:12:59;-3.50;99.90
10390;DHT22;5241;47.830;12.972;2024-01-11T14:15:25;-3.50;99.90
10390;DHT22;5241;47.830;12.972;2024-01-11T14:17:51;-3.20;99.90
10390;DHT22;5241;47.830;12.972;2024-01-11T14:20:16;-3.20;99.90
10390;DHT22;5241;47.830;12.972;2024-01-11T14:22:43;-3.30;99.90
10390;DHT22;5241;47.830;12.972;2024-01-11T14:25:23;-3.40;99.90
10390;DHT22;5241;47.830;12.972;2024-01-11T14:27:50;-3.40;99.90
10390;DHT22;5241;47.830;12.972;2024-01-11T14:30:16;-3.40;99.90
10390;DHT22;5241;47.830;12.972;2024-01-11T14:32:41;-3.40;99.90
10390;DHT22;5241;47.830;12.972;2024-01-11T14:35:08;-3.50;99.90
10390;DHT22;5241;47.830;12.972;2024-01-11T14:37:35;-3.50;99.90
10390;DHT22;5241;47.830;12.972;2024-01-11T14:40:01;-3.60;99.90
10390;DHT22;5241;47.830;12.972;2024-01-11T14:42:27;-3.60;99.90
10390;DHT22;5241;47.830;12.972;2024-01-11T14:44:53;-3.70;99.90
10390;DHT22;5241;47.830;12.972;2024-01-11T14:47:19;-3.50;99.90
10390;DHT22;5241;47.830;12.972;2024-01-11T14:49:46;-3.40;99.90
10390;DHT22;5241;47.830;12.972;2024-01-11T14:52:12;-3.50;99.90
10390;DHT22;5241;47.830;12.972;2024-01-11T14:54:38;-3.60;99.90
10390;DHT22;5241;47.830;12.972;2024-01-11T14:57:04;-3.50;99.90
10390;DHT22;5241;47.830;12.972;2024-01-11T14:59:33;-3.50;99.90
10390;DHT22;5241;47.830;12.972;2024-01-11T15:02:01;-3.40;99.90
10390;DHT22;5241;47.830;12.972;2024-01-11T15:04:28;-3.50;99.90
10390;DHT22;5241;47.830;12.972;2024-01-11T15:06:53;-3.50;99.90
10390;DHT22;5241;47.830;12.972;2024-01-11T15:09:19;-3.40;99.90
10390;DHT22;5241;47.830;12.972;2024-01-11T15:11:44;-3.30;99.90
10390;DHT22;5241;47.830;12.972;2024-01-11T15:14:10;-3.40;99.90
10390;DHT22;5241;47.830;12.972;2024-01-11T15:16:36;-3.50;99.90
10390;DHT22;5241;47.830;12.972;2024-01-11T15:19:02;-3.50;99.90
10390;DHT22;5241;47.830;12.972;2024-01-11T15:21:28;-3.60;99.90
10390;DHT22;5241;47.830;12.972;2024-01-11T15:23:54;-3.50;99.90
10390;DHT22;5241;47.830;12.972;2024-01-11T15:26:20;-3.60;99.90
10390;DHT22;5241;47.830;12.972;2024-01-11T15:28:46;-3.60;99.90
10390;DHT22;5241;47.830;12.972;2024-01-11T15:31:13;-3.70;99.90